createdAt,value
2022-10-18T00:01:05.460Z,102149.34
2022-10-18T00:03:33.952Z,102143.25
2022-10-18T00:06:02.043Z,102144.53
2022-10-18T00:08:29.636Z,102143.78
2022-10-18T00:10:57.924Z,102150.31
2022-10-18T00:13:26.728Z,102140.66
2022-10-18T00:15:57.780Z,102140.34
2022-10-18T00:18:25.665Z,102143.19
2022-10-18T00:21:01.479Z,102135.28
2022-10-18T00:23:31.020Z,102131.97
2022-10-18T00:26:03.473Z,102127.72
2022-10-18T00:28:32.627Z,102129.41
2022-10-18T00:31:36.586Z,102130.69
2022-10-18T00:34:10.103Z,102125.44
2022-10-18T00:36:37.556Z,102127.63
2022-10-18T00:39:07.510Z,102120.75
2022-10-18T00:41:37.977Z,102124.06
2022-10-18T00:44:11.208Z,102117.59
2022-10-18T00:46:45.786Z,102123.69
2022-10-18T00:49:25.095Z,102113.09
2022-10-18T00:52:00.353Z,102107.00
2022-10-18T00:54:30.988Z,102112.41
2022-10-18T00:56:58.828Z,102113.09
2022-10-18T00:59:26.727Z,102112.03
2022-10-18T01:01:54.759Z,102107.69
2022-10-18T01:04:22.616Z,102099.84
2022-10-18T01:09:45.992Z,102105.69
2022-10-18T01:12:33.109Z,102103.31
2022-10-18T01:15:26.471Z,102097.56
2022-10-18T01:18:33.200Z,102097.91
2022-10-18T01:21:43.707Z,102091.53
2022-10-18T01:24:45.178Z,102094.00
2022-10-18T01:27:37.763Z,102091.72
2022-10-18T01:30:41.312Z,102091.81
2022-10-18T01:33:46.165Z,102089.09
2022-10-18T01:36:25.845Z,102080.63
2022-10-18T01:38:57.539Z,102075.91
2022-10-18T01:41:27.136Z,102075.16
2022-10-18T01:43:59.544Z,102073.44
2022-10-18T01:46:28.814Z,102067.44
2022-10-18T01:48:57.364Z,102066.31
2022-10-18T01:51:26.275Z,102061.00
2022-10-18T01:53:54.391Z,102061.41
2022-10-18T01:56:41.241Z,102060.03
2022-10-18T01:59:17.665Z,102060.06
2022-10-18T02:02:34.649Z,102060.31
2022-10-18T02:05:14.014Z,102052.41
2022-10-18T02:07:41.328Z,102042.91
2022-10-18T02:10:42.542Z,102050.19
2022-10-18T02:13:13.468Z,102048.66
2022-10-18T02:15:45.628Z,102045.12
2022-10-18T02:18:25.533Z,102046.81
2022-10-18T02:20:54.845Z,102057.13
2022-10-18T02:23:25.275Z,102043.87
2022-10-18T02:25:53.908Z,102051.97
2022-10-18T02:28:22.157Z,102055.81
2022-10-18T02:31:11.184Z,102061.03
2022-10-18T02:33:57.116Z,102054.63
2022-10-18T02:36:52.578Z,102048.53
2022-10-18T02:39:26.367Z,102058.59
2022-10-18T02:41:55.039Z,102055.88
2022-10-18T02:44:23.348Z,102051.72
2022-10-18T02:46:51.286Z,102059.03
2022-10-18T02:49:18.670Z,102052.28
2022-10-18T02:51:46.301Z,102052.78
2022-10-18T02:54:13.795Z,102051.66
2022-10-18T02:56:41.246Z,102033.19
2022-10-18T02:59:09.256Z,102044.91
2022-10-18T03:01:36.733Z,102049.03
2022-10-18T03:04:04.984Z,102045.50
2022-10-18T03:06:33.348Z,102042.59
2022-10-18T03:09:05.616Z,102043.53
2022-10-18T03:11:33.313Z,102047.63
2022-10-18T03:14:00.701Z,102045.25
2022-10-18T03:16:28.042Z,102041.69
2022-10-18T03:18:55.757Z,102047.88
2022-10-18T03:21:23.125Z,102052.47
2022-10-18T03:23:50.557Z,102052.47
2022-10-18T03:26:18.364Z,102055.59
2022-10-18T03:28:45.819Z,102058.50
2022-10-18T03:31:13.284Z,102056.44
2022-10-18T03:33:40.932Z,102057.50
2022-10-18T03:36:08.367Z,102059.41
2022-10-18T03:38:35.716Z,102060.56
2022-10-18T03:41:03.493Z,102060.19
2022-10-18T03:43:30.804Z,102061.69
2022-10-18T03:45:58.300Z,102069.06
2022-10-18T03:48:26.072Z,102066.28
2022-10-18T03:50:53.433Z,102054.81
2022-10-18T03:53:20.872Z,102068.88
2022-10-18T03:55:56.008Z,102059.81
2022-10-18T03:58:24.438Z,102063.28
2022-10-18T04:00:53.541Z,102057.56
2022-10-18T04:03:22.584Z,102063.00
2022-10-18T04:05:50.356Z,102060.53
2022-10-18T04:08:18.459Z,102060.03
2022-10-18T04:10:46.547Z,102062.84
2022-10-18T04:13:14.198Z,102057.41
2022-10-18T04:15:41.579Z,102056.59
2022-10-18T04:18:09.347Z,102051.81
2022-10-18T04:20:36.750Z,102057.25
2022-10-18T04:23:04.098Z,102052.56
2022-10-18T04:25:31.868Z,102045.94
2022-10-18T04:27:59.399Z,102047.41
2022-10-18T04:30:26.801Z,102043.66
2022-10-18T04:32:54.407Z,102042.47
2022-10-18T04:35:24.486Z,102037.25
2022-10-18T04:37:51.965Z,102037.44
2022-10-18T04:40:22.795Z,102045.72
2022-10-18T04:42:50.285Z,102041.13
2022-10-18T04:45:17.636Z,102036.47
2022-10-18T04:47:45.236Z,102034.72
2022-10-18T04:50:13.080Z,102032.16
2022-10-18T04:52:41.293Z,102038.16
2022-10-18T04:55:09.068Z,102029.91
2022-10-18T04:57:36.417Z,102027.72
2022-10-18T05:00:04.983Z,102028.41
2022-10-18T05:02:32.983Z,102027.03
2022-10-18T05:05:00.469Z,102025.78
2022-10-18T05:07:27.831Z,102026.19
2022-10-18T05:09:57.588Z,102023.34
2022-10-18T05:12:25.016Z,102029.16
2022-10-18T05:14:52.336Z,102027.28
2022-10-18T05:17:20.107Z,102025.19
2022-10-18T05:19:47.537Z,102030.84
2022-10-18T05:22:14.870Z,102026.19
2022-10-18T05:24:42.516Z,102024.75
2022-10-18T05:27:11.120Z,102031.84
2022-10-18T05:29:38.613Z,102026.87
2022-10-18T05:32:06.248Z,102030.25
2022-10-18T05:34:33.701Z,102032.94
2022-10-18T05:37:01.431Z,102033.97
2022-10-18T05:39:29.724Z,102031.16
2022-10-18T05:41:58.137Z,102029.59
2022-10-18T05:44:25.696Z,102023.00
2022-10-18T05:46:53.392Z,102026.09
2022-10-18T05:49:21.295Z,102018.62
2022-10-18T05:51:48.827Z,102018.66
2022-10-18T05:54:19.063Z,102010.53
2022-10-18T05:56:46.969Z,102013.44
2022-10-18T05:59:14.425Z,102013.75
2022-10-18T06:01:43.004Z,102019.50
2022-10-18T06:04:10.729Z,102015.66
2022-10-18T06:06:38.873Z,102012.56
2022-10-18T06:09:08.343Z,102024.78
2022-10-18T06:11:36.916Z,102013.59
2022-10-18T06:14:05.018Z,102028.16
2022-10-18T06:16:32.844Z,102020.19
2022-10-18T06:19:00.922Z,102023.81
2022-10-18T06:21:28.268Z,102026.56
2022-10-18T06:23:58.278Z,102026.69
2022-10-18T06:26:27.882Z,102031.62
2022-10-18T06:28:55.413Z,102034.56
2022-10-18T06:31:22.927Z,102048.44
2022-10-18T06:33:50.814Z,102039.34
2022-10-18T06:36:22.044Z,102044.75
2022-10-18T06:38:50.338Z,102049.16
2022-10-18T06:41:19.537Z,102045.88
2022-10-18T06:43:51.240Z,102047.56
2022-10-18T06:46:19.585Z,102056.25
2022-10-18T06:48:47.722Z,102052.25
2022-10-18T06:51:15.385Z,102050.78
2022-10-18T06:53:53.439Z,102056.41
2022-10-18T06:56:30.734Z,102051.97
2022-10-18T07:01:30.892Z,102057.84
2022-10-18T07:03:58.586Z,102050.56
2022-10-18T07:06:26.064Z,102046.75
2022-10-18T07:08:54.250Z,102046.53
2022-10-18T07:11:25.146Z,102045.59
2022-10-18T07:13:54.499Z,102045.97
2022-10-18T07:16:22.209Z,102044.59
2022-10-18T07:18:51.353Z,102039.47
2022-10-18T07:21:22.244Z,102039.87
2022-10-18T07:23:51.216Z,102029.38
2022-10-18T07:26:23.443Z,102030.91
2022-10-18T07:28:55.310Z,102041.50
2022-10-18T07:31:24.149Z,102026.41
2022-10-18T07:33:52.428Z,102031.41
2022-10-18T07:36:22.059Z,102020.63
2022-10-18T07:38:51.892Z,102019.47
2022-10-18T07:41:20.408Z,102013.22
2022-10-18T07:43:50.791Z,102018.28
2022-10-18T07:46:22.822Z,102017.22
2022-10-18T07:48:53.532Z,102013.22
2022-10-18T07:51:21.359Z,102011.28
2022-10-18T07:53:48.788Z,102014.16
2022-10-18T07:56:21.391Z,102011.94
2022-10-18T07:58:52.137Z,102012.63
2022-10-18T08:01:23.016Z,102007.72
2022-10-18T08:03:51.705Z,102012.13
2022-10-18T08:06:21.066Z,102019.87
2022-10-18T08:08:48.670Z,102005.88
2022-10-18T08:11:19.167Z,102005.69
2022-10-18T08:13:46.570Z,102005.63
2022-10-18T08:16:20.467Z,101998.72
2022-10-18T08:18:48.617Z,102009.34
2022-10-18T08:21:17.605Z,102003.78
2022-10-18T08:23:45.262Z,101993.84
2022-10-18T08:26:15.746Z,101992.31
2022-10-18T08:28:49.102Z,101997.53
2022-10-18T08:31:21.922Z,102000.00
2022-10-18T08:33:49.293Z,101990.38
2022-10-18T08:36:19.389Z,101993.91
2022-10-18T08:38:49.222Z,101993.66
2022-10-18T08:41:41.676Z,101993.25
2022-10-18T08:44:29.572Z,101990.47
2022-10-18T08:47:05.991Z,101991.50
2022-10-18T08:49:47.331Z,101981.44
2022-10-18T08:55:19.980Z,101974.16
2022-10-18T08:57:48.952Z,101970.53
2022-10-18T09:00:30.817Z,101968.44
2022-10-18T09:03:18.381Z,101963.91
2022-10-18T09:05:46.355Z,101953.97
2022-10-18T09:08:22.886Z,101961.09
2022-10-18T09:14:01.204Z,101950.25
2022-10-18T09:16:56.064Z,101953.19
2022-10-18T09:19:29.573Z,101949.22
2022-10-18T09:22:19.160Z,101947.69
2022-10-18T09:25:15.100Z,101948.75
2022-10-18T09:27:51.416Z,101953.09
2022-10-18T09:30:54.807Z,101939.19
2022-10-18T09:33:46.757Z,101935.13
2022-10-18T09:36:20.308Z,101930.94
2022-10-18T09:38:57.333Z,101935.63
2022-10-18T09:41:48.629Z,101932.47
2022-10-18T09:44:22.180Z,101930.69
2022-10-18T09:46:55.961Z,101934.56
2022-10-18T09:49:29.487Z,101932.88
2022-10-18T09:51:59.676Z,101921.06
2022-10-18T09:54:40.295Z,101921.97
2022-10-18T09:57:39.667Z,101911.53
2022-10-18T10:00:16.612Z,101911.25
2022-10-18T10:02:44.376Z,101904.69
2022-10-18T10:05:15.608Z,101901.03
2022-10-18T10:07:48.343Z,101899.97
2022-10-18T10:10:25.596Z,101890.19
2022-10-18T10:13:16.812Z,101899.56
2022-10-18T10:16:00.840Z,101891.06
2022-10-18T10:18:34.472Z,101895.97
2022-10-18T10:21:07.148Z,101889.16
2022-10-18T10:23:44.513Z,101886.69
2022-10-18T10:26:29.023Z,101881.88
2022-10-18T10:28:56.559Z,101869.34
2022-10-18T10:31:24.233Z,101881.31
2022-10-18T10:34:14.657Z,101876.66
2022-10-18T10:36:53.987Z,101879.22
2022-10-18T10:39:24.333Z,101872.91
2022-10-18T10:41:58.532Z,101871.56
2022-10-18T10:44:30.397Z,101857.75
2022-10-18T10:46:58.800Z,101856.72
2022-10-18T10:49:42.423Z,101854.56
2022-10-18T10:52:27.646Z,101842.38
2022-10-18T10:55:30.855Z,101836.56
2022-10-18T10:57:48.353Z,101834.03
2022-10-18T11:00:39.354Z,101831.03
2022-10-18T11:03:27.962Z,101827.69
2022-10-18T11:05:57.936Z,101820.88
2022-10-18T11:08:29.436Z,101813.81
2022-10-18T11:11:20.645Z,101813.34
2022-10-18T11:14:27.059Z,101807.47
2022-10-18T11:16:57.161Z,101808.00
2022-10-18T11:20:00.749Z,101794.47
2022-10-18T11:22:34.300Z,101798.66
2022-10-18T11:25:04.792Z,101784.09
2022-10-18T11:27:41.065Z,101792.75
2022-10-18T11:30:37.724Z,101782.56
2022-10-18T11:34:07.252Z,101782.03
2022-10-18T11:37:15.930Z,101776.31
2022-10-18T11:40:23.656Z,101770.44
2022-10-18T11:43:17.916Z,101765.25
2022-10-18T11:46:12.689Z,101756.72
2022-10-18T11:49:04.303Z,101755.53
2022-10-18T11:52:16.177Z,101752.03
2022-10-18T11:55:04.991Z,101741.72
2022-10-18T11:57:46.702Z,101736.81
2022-10-18T12:00:40.639Z,101738.31
2022-10-18T12:03:11.132Z,101728.09
2022-10-18T12:05:41.216Z,101719.19
2022-10-18T12:08:14.956Z,101720.22
2022-10-18T12:11:04.037Z,101707.81
2022-10-18T12:13:41.110Z,101711.03
2022-10-18T12:16:10.909Z,101704.75
2022-10-18T12:18:54.110Z,101713.44
2022-10-18T12:21:25.852Z,101704.50
2022-10-18T12:23:56.505Z,101706.16
2022-10-18T12:26:25.617Z,101701.28
2022-10-18T12:29:17.792Z,101697.19
2022-10-18T12:31:53.508Z,101694.00
2022-10-18T12:34:23.821Z,101689.16
2022-10-18T12:37:16.917Z,101694.31
2022-10-18T12:40:12.109Z,101689.78
2022-10-18T12:42:49.451Z,101675.94
2022-10-18T12:45:23.955Z,101680.28
2022-10-18T12:47:52.461Z,101685.00
2022-10-18T12:50:30.845Z,101676.78
2022-10-18T12:53:22.916Z,101671.25
2022-10-18T12:55:52.078Z,101668.16
2022-10-18T12:58:24.406Z,101657.91
2022-10-18T13:00:53.663Z,101661.69
2022-10-18T13:03:27.477Z,101649.63
2022-10-18T13:06:01.776Z,101645.69
2022-10-18T13:08:42.713Z,101637.06
2022-10-18T13:11:10.196Z,101629.38
2022-10-18T13:13:53.348Z,101637.28
2022-10-18T13:16:23.406Z,101632.63
2022-10-18T13:19:21.240Z,101636.50
2022-10-18T13:22:33.556Z,101628.53
2022-10-18T13:25:04.472Z,101626.53
2022-10-18T13:27:47.835Z,101618.03
2022-10-18T13:30:46.088Z,101620.88
2022-10-18T13:33:35.611Z,101622.03
2022-10-18T13:36:22.813Z,101614.38
2022-10-18T13:38:57.939Z,101613.53
2022-10-18T13:41:29.170Z,101604.19
2022-10-18T13:44:11.525Z,101602.69
2022-10-18T13:46:39.191Z,101595.56
2022-10-18T13:49:38.324Z,101598.38
2022-10-18T13:52:40.137Z,101587.19
2022-10-18T13:55:22.958Z,101595.91
2022-10-18T13:58:01.783Z,101588.06
2022-10-18T14:00:58.783Z,101579.34
2022-10-18T14:04:01.435Z,101582.87
2022-10-18T14:06:38.680Z,101581.88
2022-10-18T14:09:32.851Z,101570.53
2022-10-18T14:12:41.698Z,101572.69
2022-10-18T14:15:24.597Z,101568.03
2022-10-18T14:18:12.855Z,101560.53
2022-10-18T14:21:01.258Z,101553.72
2022-10-18T14:23:41.813Z,101548.84
2022-10-18T14:26:15.568Z,101547.34
2022-10-18T14:29:00.239Z,101543.19
2022-10-18T14:31:28.636Z,101535.88
2022-10-18T14:33:58.778Z,101544.19
2022-10-18T14:36:40.104Z,101543.53
2022-10-18T14:39:19.116Z,101540.69
2022-10-18T14:41:52.136Z,101534.38
2022-10-18T14:44:25.315Z,101534.53
2022-10-18T14:46:55.520Z,101537.03
2022-10-18T14:49:23.286Z,101535.03
2022-10-18T14:51:53.669Z,101535.69
2022-10-18T14:54:31.859Z,101532.84
2022-10-18T14:57:01.322Z,101521.84
2022-10-18T14:59:33.325Z,101519.84
2022-10-18T15:02:02.546Z,101523.97
2022-10-18T15:04:33.247Z,101523.12
2022-10-18T15:07:07.249Z,101527.78
2022-10-18T15:09:36.927Z,101519.91
2022-10-18T15:12:07.053Z,101519.25
2022-10-18T15:14:35.564Z,101516.69
2022-10-18T15:17:08.415Z,101522.31
2022-10-18T15:19:42.865Z,101511.97
2022-10-18T15:25:32.007Z,101511.81
2022-10-18T15:28:01.387Z,101513.94
2022-10-18T15:30:38.350Z,101508.19
2022-10-18T15:33:10.554Z,101503.12
2022-10-18T15:35:38.964Z,101491.59
2022-10-18T15:38:21.425Z,101492.53
2022-10-18T15:40:49.290Z,101492.97
2022-10-18T15:43:22.830Z,101487.19
2022-10-18T15:45:53.307Z,101479.94
2022-10-18T15:48:31.519Z,101483.47
2022-10-18T15:51:07.836Z,101476.63
2022-10-18T15:53:42.136Z,101474.66
2022-10-18T15:56:40.066Z,101482.72
2022-10-18T15:59:32.129Z,101482.50
2022-10-18T16:02:01.524Z,101479.12
2022-10-18T16:04:32.064Z,101489.62
2022-10-18T16:07:00.368Z,101485.38
2022-10-18T16:09:29.222Z,101478.19
2022-10-18T16:11:58.153Z,101481.44
2022-10-18T16:14:26.356Z,101484.09
2022-10-18T16:16:56.513Z,101482.00
2022-10-18T16:19:24.313Z,101470.59
2022-10-18T16:21:53.735Z,101482.16
2022-10-18T16:24:21.864Z,101482.75
2022-10-18T16:26:49.957Z,101481.78
2022-10-18T16:29:21.755Z,101484.06
2022-10-18T16:31:50.871Z,101481.16
2022-10-18T16:34:18.385Z,101493.69
2022-10-18T16:36:45.769Z,101489.31
2022-10-18T16:39:18.421Z,101500.81
2022-10-18T16:41:46.743Z,101508.28
2022-10-18T16:44:16.031Z,101511.75
2022-10-18T16:46:43.967Z,101516.41
2022-10-18T16:51:55.278Z,101517.34
2022-10-18T16:54:23.487Z,101520.91
2022-10-18T16:56:51.201Z,101518.34
2022-10-18T16:59:26.159Z,101515.50
2022-10-18T17:01:53.999Z,101509.59
2022-10-18T17:04:21.523Z,101511.63
2022-10-18T17:06:49.196Z,101514.34
2022-10-18T17:09:17.200Z,101514.56
2022-10-18T17:11:44.585Z,101518.81
2022-10-18T17:14:11.980Z,101510.09
2022-10-18T17:16:52.308Z,101507.47
2022-10-18T17:19:23.269Z,101509.84
2022-10-18T17:21:51.015Z,101508.56
2022-10-18T17:24:18.404Z,101512.69
2022-10-18T17:26:45.803Z,101510.41
2022-10-18T17:29:13.647Z,101511.19
2022-10-18T17:31:41.180Z,101519.56
2022-10-18T17:34:08.995Z,101512.69
2022-10-18T17:36:36.684Z,101506.94
2022-10-18T17:39:04.693Z,101503.34
2022-10-18T17:41:32.141Z,101506.97
2022-10-18T17:44:02.934Z,101509.88
2022-10-18T17:46:30.912Z,101510.81
2022-10-18T17:48:58.765Z,101504.97
2022-10-18T17:51:26.566Z,101507.87
2022-10-18T17:53:54.225Z,101502.44
2022-10-18T17:56:21.693Z,101510.00
2022-10-18T17:58:52.894Z,101506.06
2022-10-18T18:01:23.175Z,101496.69
2022-10-18T18:03:59.344Z,101496.94
2022-10-18T18:06:33.922Z,101500.41
2022-10-18T18:09:13.222Z,101493.44
2022-10-18T18:11:43.512Z,101495.59
2022-10-18T18:14:12.269Z,101494.50
2022-10-18T18:16:42.432Z,101491.22
2022-10-18T18:19:10.358Z,101497.09
2022-10-18T18:21:39.368Z,101488.06
2022-10-18T18:24:07.296Z,101493.06
2022-10-18T18:26:36.028Z,101494.87
2022-10-18T18:29:03.895Z,101488.13
2022-10-18T18:31:37.742Z,101493.63
2022-10-18T18:34:09.625Z,101488.59
2022-10-18T18:36:37.156Z,101489.16
2022-10-18T18:39:05.694Z,101497.00
2022-10-18T18:41:33.424Z,101503.19
2022-10-18T18:44:04.214Z,101501.59
2022-10-18T18:46:37.255Z,101499.56
2022-10-18T18:49:06.837Z,101485.44
2022-10-18T18:51:37.362Z,101480.94
2022-10-18T18:54:05.340Z,101486.22
2022-10-18T18:56:33.194Z,101479.75
2022-10-18T18:59:01.206Z,101479.41
2022-10-18T19:01:36.856Z,101484.31
2022-10-18T19:04:05.839Z,101476.72
2022-10-18T19:06:37.734Z,101474.09
2022-10-18T19:09:19.525Z,101471.88
2022-10-18T19:11:49.493Z,101465.47
2022-10-18T19:14:16.970Z,101460.44
2022-10-18T19:16:49.867Z,101465.06
2022-10-18T19:19:20.220Z,101469.81
2022-10-18T19:21:51.731Z,101453.47
2022-10-18T19:24:23.750Z,101449.28
2022-10-18T19:26:53.618Z,101445.94
2022-10-18T19:29:25.960Z,101459.06
2022-10-18T19:31:57.778Z,101452.78
2022-10-18T19:34:27.927Z,101452.12
2022-10-18T19:36:55.824Z,101452.75
2022-10-18T19:39:28.844Z,101446.44
2022-10-18T19:41:58.589Z,101440.91
2022-10-18T19:44:30.218Z,101437.31
2022-10-18T19:46:58.671Z,101439.72
2022-10-18T19:49:27.298Z,101444.69
2022-10-18T19:51:55.711Z,101447.94
2022-10-18T19:54:23.474Z,101453.81
2022-10-18T19:56:51.474Z,101457.63
2022-10-18T19:59:19.460Z,101456.66
2022-10-18T20:01:47.220Z,101461.00
2022-10-18T20:04:16.146Z,101457.63
2022-10-18T20:06:43.817Z,101450.34
2022-10-18T20:09:16.058Z,101451.53
2022-10-18T20:11:47.132Z,101443.87
2022-10-18T20:14:14.567Z,101438.09
2022-10-18T20:16:41.927Z,101434.63
2022-10-18T20:19:10.385Z,101433.87
2022-10-18T20:21:39.339Z,101449.00
2022-10-18T20:24:06.980Z,101443.13
2022-10-18T20:26:35.873Z,101445.34
2022-10-18T20:29:04.542Z,101448.38
2022-10-18T20:31:35.588Z,101456.25
2022-10-18T20:34:06.259Z,101452.88
2022-10-18T20:36:35.099Z,101445.84
2022-10-18T20:39:03.687Z,101447.94
2022-10-18T20:41:34.175Z,101438.81
2022-10-18T20:44:10.696Z,101443.47
2022-10-18T20:46:39.361Z,101443.59
2022-10-18T20:49:08.412Z,101443.69
2022-10-18T20:51:35.966Z,101441.59
2022-10-18T20:56:39.355Z,101438.34
2022-10-18T20:59:09.899Z,101449.78
2022-10-18T21:01:39.412Z,101447.00
2022-10-18T21:04:09.921Z,101446.75
2022-10-18T21:06:42.821Z,101438.19
2022-10-18T21:09:13.251Z,101432.50
2022-10-18T21:11:42.319Z,101430.94
2022-10-18T21:14:12.642Z,101425.97
2022-10-18T21:16:41.097Z,101423.37
2022-10-18T21:19:21.293Z,101423.84
2022-10-18T21:21:52.143Z,101422.53
2022-10-18T21:24:20.708Z,101412.13
2022-10-18T21:26:51.129Z,101408.47
2022-10-18T21:29:22.254Z,101402.28
2022-10-18T21:31:55.934Z,101393.25
2022-10-18T21:34:23.762Z,101390.34
2022-10-18T21:36:51.195Z,101387.62
2022-10-18T21:39:21.707Z,101389.72
2022-10-18T21:41:49.930Z,101385.31
2022-10-18T21:44:18.125Z,101388.00
2022-10-18T21:46:46.699Z,101376.22
2022-10-18T21:49:15.566Z,101373.81
2022-10-18T21:51:43.411Z,101363.19
2022-10-18T21:54:15.601Z,101378.38
2022-10-18T21:56:43.800Z,101378.31
2022-10-18T21:59:12.578Z,101375.31
2022-10-18T22:01:40.753Z,101372.06
2022-10-18T22:04:18.704Z,101363.06
2022-10-18T22:06:46.371Z,101362.13
2022-10-18T22:09:14.040Z,101358.47
2022-10-18T22:11:44.741Z,101362.84
2022-10-18T22:14:12.483Z,101364.59
2022-10-18T22:16:40.188Z,101362.53
2022-10-18T22:19:08.249Z,101364.22
2022-10-18T22:21:35.872Z,101356.97
2022-10-18T22:24:07.271Z,101357.97
2022-10-18T22:26:39.974Z,101358.09
2022-10-18T22:29:16.015Z,101364.72
2022-10-18T22:31:46.276Z,101362.56
2022-10-18T22:34:17.515Z,101356.97
2022-10-18T22:36:45.812Z,101361.75
2022-10-18T22:39:16.730Z,101349.59
2022-10-18T22:41:45.308Z,101348.31
2022-10-18T22:44:14.329Z,101340.50
2022-10-18T22:46:42.028Z,101345.25
2022-10-18T22:49:11.490Z,101339.09
2022-10-18T22:51:38.862Z,101344.69
2022-10-18T22:54:06.499Z,101345.25
2022-10-18T22:56:34.363Z,101350.41
2022-10-18T22:59:01.956Z,101354.25
2022-10-18T23:01:29.481Z,101346.78
2022-10-18T23:03:59.115Z,101343.78
2022-10-18T23:06:31.890Z,101345.03
2022-10-18T23:09:02.244Z,101349.94
2022-10-18T23:11:29.683Z,101347.16
2022-10-18T23:13:57.161Z,101346.41
2022-10-18T23:16:24.913Z,101353.91
2022-10-18T23:18:54.831Z,101358.56
2022-10-18T23:21:24.375Z,101355.19
2022-10-18T23:23:53.360Z,101349.59
2022-10-18T23:26:24.094Z,101349.09
2022-10-18T23:28:53.291Z,101354.34
2022-10-18T23:31:29.376Z,101341.56
2022-10-18T23:33:59.520Z,101346.25
2022-10-18T23:36:27.407Z,101338.28
2022-10-18T23:38:55.411Z,101337.06
2022-10-18T23:41:23.868Z,101334.44
2022-10-18T23:43:51.892Z,101337.78
2022-10-18T23:46:19.921Z,101348.44
2022-10-18T23:48:48.148Z,101345.28
2022-10-18T23:51:16.072Z,101346.81
2022-10-18T23:53:43.475Z,101342.88
2022-10-18T23:56:14.930Z,101329.78
2022-10-18T23:58:43.559Z,101331.38
